createdAt,value
2023-05-22T00:00:20.213Z,57436.38
2023-05-22T00:02:47.042Z,57484.41
2023-05-22T00:05:15.169Z,57442.66
2023-05-22T00:07:43.428Z,57469.78
2023-05-22T00:10:10.788Z,57400.91
2023-05-22T00:12:37.908Z,57476.03
2023-05-22T00:15:05.625Z,57465.59
2023-05-22T00:17:34.603Z,57480.22
2023-05-22T00:20:08.369Z,57459.34
2023-05-22T00:22:35.845Z,57465.59
2023-05-22T00:25:07.061Z,57451.00
2023-05-22T00:27:34.330Z,57425.94
2023-05-22T00:30:01.514Z,57451.00
2023-05-22T00:32:28.536Z,57444.72
2023-05-22T00:34:55.816Z,57446.81
2023-05-22T00:37:22.615Z,57417.59
2023-05-22T00:39:52.262Z,57461.44
2023-05-22T00:42:19.258Z,57423.88
2023-05-22T00:44:46.716Z,57459.34
2023-05-22T00:47:13.780Z,57425.94
2023-05-22T00:49:42.336Z,57453.09
2023-05-22T00:52:12.745Z,57453.09
2023-05-22T00:54:40.515Z,57423.88
2023-05-22T00:57:07.476Z,57430.13
2023-05-22T00:59:36.840Z,57413.44
2023-05-22T01:02:03.751Z,57417.59
2023-05-22T01:04:32.934Z,57425.94
2023-05-22T01:07:02.870Z,57421.78
2023-05-22T01:09:31.919Z,57428.03
2023-05-22T01:12:20.092Z,57423.88
2023-05-22T01:15:02.905Z,57415.50
2023-05-22T01:17:56.202Z,57415.50
2023-05-22T01:20:53.104Z,57461.44
2023-05-22T01:23:48.663Z,57417.59
2023-05-22T01:26:40.203Z,57459.34
2023-05-22T01:29:28.178Z,57430.13
2023-05-22T01:31:57.881Z,57436.38
2023-05-22T01:34:25.940Z,57386.28
2023-05-22T01:36:55.001Z,57457.25
2023-05-22T01:39:23.958Z,57453.09
2023-05-22T01:41:52.246Z,57419.69
2023-05-22T01:44:20.119Z,57459.34
2023-05-22T01:46:46.955Z,57440.56
2023-05-22T01:49:14.100Z,57455.16
2023-05-22T01:51:53.769Z,57446.81
2023-05-22T01:54:32.266Z,57425.94
2023-05-22T01:57:04.852Z,57478.13
2023-05-22T01:59:45.662Z,57478.13
2023-05-22T02:02:16.040Z,57419.69
2023-05-22T02:04:46.816Z,57453.09
2023-05-22T02:07:20.339Z,57459.34
2023-05-22T02:09:48.579Z,57455.16
2023-05-22T02:12:15.958Z,57451.00
2023-05-22T02:14:45.161Z,57432.22
2023-05-22T02:17:12.848Z,57440.56
2023-05-22T02:19:39.683Z,57503.19
2023-05-22T02:22:06.417Z,57430.13
2023-05-22T02:24:36.950Z,57421.78
2023-05-22T02:27:04.302Z,57417.59
2023-05-22T02:29:31.164Z,57444.72
2023-05-22T02:31:57.734Z,57455.16
2023-05-22T02:34:24.506Z,57419.69
2023-05-22T02:36:51.275Z,57469.78
2023-05-22T02:39:21.260Z,57446.81
2023-05-22T02:41:48.320Z,57453.09
2023-05-22T02:44:15.446Z,57461.44
2023-05-22T02:46:42.107Z,57459.34
2023-05-22T02:49:08.939Z,57463.53
2023-05-22T02:51:35.957Z,57423.88
2023-05-22T02:54:03.052Z,57461.44
2023-05-22T02:56:30.177Z,57446.81
2023-05-22T02:58:57.334Z,57463.53
2023-05-22T03:01:24.150Z,57403.00
2023-05-22T03:03:50.953Z,57461.44
2023-05-22T03:06:18.507Z,57476.03
2023-05-22T03:08:45.435Z,57446.81
2023-05-22T03:11:12.497Z,57438.47
2023-05-22T03:13:39.258Z,57440.56
2023-05-22T03:16:06.174Z,57455.16
2023-05-22T03:18:33.012Z,57463.53
2023-05-22T03:20:59.665Z,57455.16
2023-05-22T03:23:26.547Z,57444.72
2023-05-22T03:25:53.223Z,57465.59
2023-05-22T03:28:19.905Z,57476.03
2023-05-22T03:30:46.679Z,57419.69
2023-05-22T03:33:13.478Z,57423.88
2023-05-22T03:35:40.215Z,57432.22
2023-05-22T03:38:06.993Z,57442.66
2023-05-22T03:40:33.801Z,57463.53
2023-05-22T03:43:00.659Z,57478.13
2023-05-22T03:45:27.681Z,57428.03
2023-05-22T03:47:54.528Z,57448.91
2023-05-22T03:50:21.554Z,57411.34
2023-05-22T03:52:48.641Z,57442.66
2023-05-22T03:55:16.735Z,57415.50
2023-05-22T03:57:43.360Z,57417.59
2023-05-22T04:00:12.024Z,57417.59
2023-05-22T04:02:45.233Z,57423.88
2023-05-22T04:05:12.389Z,57411.34
2023-05-22T04:07:39.128Z,57459.34
2023-05-22T04:10:06.514Z,57432.22
2023-05-22T04:12:33.307Z,57423.88
2023-05-22T04:15:00.052Z,57461.44
2023-05-22T04:17:32.749Z,57423.88
2023-05-22T04:20:02.301Z,57400.91
2023-05-22T04:22:31.071Z,57442.66
2023-05-22T04:24:57.870Z,57432.22
2023-05-22T04:27:24.970Z,57407.16
2023-05-22T04:29:51.606Z,57421.78
2023-05-22T04:32:22.137Z,57409.25
2023-05-22T04:34:51.484Z,57394.63
2023-05-22T04:37:20.397Z,57405.06
2023-05-22T04:39:48.888Z,57344.53
2023-05-22T04:42:16.557Z,57419.69
2023-05-22T04:44:43.780Z,57386.28
2023-05-22T04:47:14.615Z,57377.94
2023-05-22T04:49:43.030Z,57375.84
2023-05-22T04:52:11.712Z,57363.31
2023-05-22T04:54:39.412Z,57329.94
2023-05-22T04:57:06.491Z,57340.38
2023-05-22T04:59:38.219Z,57298.63
2023-05-22T05:02:05.852Z,57321.59
2023-05-22T05:04:33.379Z,57334.09
2023-05-22T05:07:00.807Z,57377.94
2023-05-22T05:09:28.590Z,57392.56
2023-05-22T05:11:56.063Z,57386.28
2023-05-22T05:14:22.793Z,57405.06
2023-05-22T05:16:52.155Z,57367.50
2023-05-22T05:19:21.974Z,57336.19
2023-05-22T05:21:49.709Z,57363.31
2023-05-22T05:24:20.681Z,57309.06
2023-05-22T05:26:47.607Z,57344.53
2023-05-22T05:29:14.208Z,57323.66
2023-05-22T05:31:40.896Z,57323.66
2023-05-22T05:34:07.822Z,57298.63
2023-05-22T05:36:34.630Z,57275.66
2023-05-22T05:39:01.422Z,57321.59
2023-05-22T05:41:28.468Z,57277.75
2023-05-22T05:43:57.569Z,57284.00
2023-05-22T05:46:25.847Z,57309.06
2023-05-22T05:48:52.845Z,57313.22
2023-05-22T05:51:21.351Z,57306.97
2023-05-22T05:53:48.529Z,57277.75
2023-05-22T05:56:16.298Z,57321.59
2023-05-22T05:58:43.398Z,57296.53
2023-05-22T06:01:12.086Z,57296.53
2023-05-22T06:03:38.963Z,57325.75
2023-05-22T06:06:08.162Z,57288.19
2023-05-22T06:08:34.988Z,57275.66
2023-05-22T06:11:02.173Z,57306.97
2023-05-22T06:13:28.866Z,57281.94
2023-05-22T06:15:57.196Z,57350.81
2023-05-22T06:18:25.703Z,57311.16
2023-05-22T06:20:54.903Z,57342.47
2023-05-22T06:23:21.602Z,57332.03
2023-05-22T06:25:48.801Z,57334.09
2023-05-22T06:28:15.438Z,57325.75
2023-05-22T06:30:42.198Z,57375.84
2023-05-22T06:33:09.140Z,57346.63
2023-05-22T06:35:36.679Z,57354.97
2023-05-22T06:38:03.409Z,57361.25
2023-05-22T06:40:30.111Z,57363.31
2023-05-22T06:42:59.073Z,57413.44
2023-05-22T06:45:26.184Z,57365.41
2023-05-22T06:47:54.312Z,57388.38
2023-05-22T06:50:22.218Z,57388.38
2023-05-22T06:52:49.928Z,57371.69
2023-05-22T06:55:16.827Z,57377.94
2023-05-22T06:57:43.465Z,57384.19
2023-05-22T07:00:12.872Z,57409.25
2023-05-22T07:02:40.239Z,57400.91
2023-05-22T07:05:07.322Z,57375.84
2023-05-22T07:07:34.429Z,57377.94
2023-05-22T07:10:01.170Z,57384.19
2023-05-22T07:12:28.167Z,57352.91
2023-05-22T07:14:55.230Z,57394.63
2023-05-22T07:17:22.896Z,57392.56
2023-05-22T07:19:50.249Z,57428.03
2023-05-22T07:22:17.007Z,57371.69
2023-05-22T07:24:44.323Z,57430.13
2023-05-22T07:27:12.387Z,57436.38
2023-05-22T07:29:39.392Z,57396.72
2023-05-22T07:32:06.637Z,57386.28
2023-05-22T07:34:34.500Z,57390.47
2023-05-22T07:37:07.496Z,57413.44
2023-05-22T07:39:34.356Z,57398.81
2023-05-22T07:42:03.034Z,57365.41
2023-05-22T07:44:29.884Z,57380.03
2023-05-22T07:46:58.043Z,57400.91
2023-05-22T07:49:25.103Z,57369.59
2023-05-22T07:51:52.855Z,57363.31
2023-05-22T07:54:19.690Z,57350.81
2023-05-22T07:56:46.439Z,57367.50
2023-05-22T07:59:13.427Z,57367.50
2023-05-22T08:01:42.185Z,57382.13
2023-05-22T08:04:09.306Z,57377.94
2023-05-22T08:06:36.599Z,57392.56
2023-05-22T08:09:05.193Z,57361.25
2023-05-22T08:11:32.017Z,57382.13
2023-05-22T08:13:58.959Z,57390.47
2023-05-22T08:16:26.292Z,57388.38
2023-05-22T08:18:53.561Z,57361.25
2023-05-22T08:21:20.573Z,57398.81
2023-05-22T08:23:47.290Z,57365.41
2023-05-22T08:26:15.622Z,57392.56
2023-05-22T08:28:44.647Z,57371.69
2023-05-22T08:31:12.137Z,57421.78
2023-05-22T08:33:40.307Z,57425.94
2023-05-22T08:36:07.269Z,57390.47
2023-05-22T08:38:36.516Z,57400.91
2023-05-22T08:41:05.128Z,57415.50
2023-05-22T08:43:31.928Z,57405.06
2023-05-22T08:46:06.587Z,57390.47
2023-05-22T08:48:35.093Z,57377.94
2023-05-22T08:51:07.615Z,57386.28
2023-05-22T08:53:39.112Z,57413.44
2023-05-22T08:56:07.336Z,57371.69
2023-05-22T08:58:36.358Z,57392.56
2023-05-22T09:01:05.286Z,57390.47
2023-05-22T09:03:35.197Z,57403.00
2023-05-22T09:06:02.406Z,57400.91
2023-05-22T09:08:29.295Z,57380.03
2023-05-22T09:10:57.988Z,57354.97
2023-05-22T09:13:33.768Z,57444.72
2023-05-22T09:16:12.441Z,57390.47
2023-05-22T09:18:40.194Z,57415.50
2023-05-22T09:21:17.748Z,57386.28
2023-05-22T09:23:54.600Z,57400.91
2023-05-22T09:26:22.456Z,57380.03
2023-05-22T09:28:49.401Z,57425.94
2023-05-22T09:31:16.642Z,57405.06
2023-05-22T09:33:44.502Z,57411.34
2023-05-22T09:36:11.307Z,57413.44
2023-05-22T09:38:38.844Z,57386.28
2023-05-22T09:41:07.374Z,57444.72
2023-05-22T09:43:34.766Z,57363.31
2023-05-22T09:46:05.251Z,57409.25
2023-05-22T09:48:38.848Z,57396.72
2023-05-22T09:51:07.723Z,57396.72
2023-05-22T09:53:35.965Z,57403.00
2023-05-22T09:56:10.166Z,57371.69
2023-05-22T09:58:41.818Z,57361.25
2023-05-22T10:01:11.036Z,57417.59
2023-05-22T10:03:39.737Z,57421.78
2023-05-22T10:06:07.068Z,57428.03
2023-05-22T10:08:42.397Z,57388.38
2023-05-22T10:11:11.433Z,57394.63
2023-05-22T10:13:38.717Z,57386.28
2023-05-22T10:16:08.734Z,57432.22
2023-05-22T10:18:36.941Z,57430.13
2023-05-22T10:21:03.964Z,57423.88
2023-05-22T10:23:32.128Z,57384.19
2023-05-22T10:25:58.867Z,57421.78
2023-05-22T10:28:30.803Z,57394.63
2023-05-22T10:31:05.315Z,57421.78
2023-05-22T10:33:56.953Z,57405.06
2023-05-22T10:36:39.008Z,57488.56
2023-05-22T10:39:36.530Z,57415.50
2023-05-22T10:42:03.696Z,57417.59
2023-05-22T10:44:30.867Z,57423.88
2023-05-22T10:46:57.553Z,57438.47
2023-05-22T10:49:26.242Z,57417.59
2023-05-22T10:51:57.469Z,57442.66
2023-05-22T10:54:45.944Z,57400.91
2023-05-22T10:57:19.216Z,57444.72
2023-05-22T10:59:49.137Z,57453.09
2023-05-22T11:02:31.252Z,57403.00
2023-05-22T11:05:21.800Z,57455.16
2023-05-22T11:07:50.841Z,57409.25
2023-05-22T11:10:27.733Z,57423.88
2023-05-22T11:13:13.371Z,57405.06
2023-05-22T11:15:45.981Z,57411.34
2023-05-22T11:18:14.722Z,57400.91
2023-05-22T11:20:42.157Z,57363.31
2023-05-22T11:23:11.638Z,57367.50
2023-05-22T11:25:41.484Z,57400.91
2023-05-22T11:28:12.035Z,57392.56
2023-05-22T11:30:40.017Z,57394.63
2023-05-22T11:33:08.299Z,57377.94
2023-05-22T11:35:35.873Z,57446.81
2023-05-22T11:38:05.178Z,57444.72
2023-05-22T11:40:31.876Z,57432.22
2023-05-22T11:42:58.561Z,57503.19
2023-05-22T11:45:27.249Z,57453.09
2023-05-22T11:47:54.275Z,57448.91
2023-05-22T11:50:40.223Z,57438.47
2023-05-22T11:53:08.387Z,57476.03
2023-05-22T11:55:35.152Z,57430.13
2023-05-22T11:58:03.038Z,57446.81
2023-05-22T12:00:31.631Z,57438.47
2023-05-22T12:02:58.910Z,57478.13
2023-05-22T12:05:25.696Z,57413.44
2023-05-22T12:07:53.089Z,57440.56
2023-05-22T12:10:20.023Z,57428.03
2023-05-22T12:12:48.361Z,57398.81
2023-05-22T12:15:20.178Z,57423.88
2023-05-22T12:17:47.051Z,57467.69
2023-05-22T12:20:15.021Z,57442.66
2023-05-22T12:22:43.417Z,57446.81
2023-05-22T12:25:16.454Z,57444.72
2023-05-22T12:27:46.546Z,57413.44
2023-05-22T12:30:14.760Z,57459.34
2023-05-22T12:32:42.071Z,57403.00
2023-05-22T12:35:16.190Z,57459.34
2023-05-22T12:37:49.719Z,57442.66
2023-05-22T12:40:16.813Z,57386.28
2023-05-22T12:42:45.196Z,57451.00
2023-05-22T12:45:12.523Z,57440.56
2023-05-22T12:47:39.300Z,57409.25
2023-05-22T12:50:06.664Z,57413.44
2023-05-22T12:52:33.420Z,57442.66
2023-05-22T12:55:00.123Z,57403.00
2023-05-22T12:57:26.924Z,57403.00
2023-05-22T12:59:53.670Z,57448.91
2023-05-22T13:02:20.621Z,57411.34
2023-05-22T13:04:47.417Z,57398.81
2023-05-22T13:07:14.160Z,57436.38
2023-05-22T13:09:41.153Z,57451.00
2023-05-22T13:12:08.202Z,57396.72
2023-05-22T13:14:35.800Z,57409.25
2023-05-22T13:17:02.598Z,57457.25
2023-05-22T13:19:29.513Z,57438.47
2023-05-22T13:21:56.415Z,57455.16
2023-05-22T13:24:22.999Z,57413.44
2023-05-22T13:26:49.709Z,57451.00
2023-05-22T13:29:16.509Z,57407.16
2023-05-22T13:31:43.191Z,57451.00
2023-05-22T13:34:10.260Z,57425.94
2023-05-22T13:36:37.018Z,57442.66
2023-05-22T13:39:03.667Z,57407.16
2023-05-22T13:41:30.902Z,57386.28
2023-05-22T13:43:58.029Z,57394.63
2023-05-22T13:46:25.281Z,57438.47
2023-05-22T13:48:52.000Z,57373.75
2023-05-22T13:51:18.732Z,57405.06
2023-05-22T13:53:45.423Z,57390.47
2023-05-22T13:56:12.346Z,57413.44
2023-05-22T13:58:39.433Z,57415.50
2023-05-22T14:01:06.265Z,57403.00
2023-05-22T14:03:33.135Z,57400.91
2023-05-22T14:06:00.065Z,57386.28
2023-05-22T14:08:26.800Z,57392.56
2023-05-22T14:10:53.896Z,57390.47
2023-05-22T14:13:20.595Z,57413.44
2023-05-22T14:15:47.460Z,57384.19
2023-05-22T14:18:16.749Z,57388.38
2023-05-22T14:20:44.116Z,57398.81
2023-05-22T14:23:12.408Z,57394.63
2023-05-22T14:25:43.090Z,57438.47
2023-05-22T14:28:10.654Z,57373.75
2023-05-22T14:30:37.516Z,57419.69
2023-05-22T14:33:04.480Z,57407.16
2023-05-22T14:35:32.113Z,57453.09
2023-05-22T14:37:59.187Z,57388.38
2023-05-22T14:40:25.880Z,57415.50
2023-05-22T14:42:53.962Z,57425.94
2023-05-22T14:45:21.105Z,57407.16
2023-05-22T14:47:50.074Z,57423.88
2023-05-22T14:50:20.247Z,57415.50
2023-05-22T14:52:48.719Z,57421.78
2023-05-22T14:55:16.123Z,57371.69
2023-05-22T14:57:42.798Z,57394.63
2023-05-22T15:00:10.940Z,57390.47
2023-05-22T15:02:37.986Z,57415.50
2023-05-22T15:05:05.897Z,57373.75
2023-05-22T15:07:43.161Z,57357.06
2023-05-22T15:10:12.446Z,57394.63
2023-05-22T15:12:39.173Z,57392.56
2023-05-22T15:15:06.528Z,57440.56
2023-05-22T15:17:33.230Z,57405.06
2023-05-22T15:20:00.015Z,57421.78
2023-05-22T15:22:26.606Z,57415.50
2023-05-22T15:25:11.664Z,57394.63
2023-05-22T15:27:39.428Z,57413.44
2023-05-22T15:30:07.298Z,57407.16
2023-05-22T15:32:34.180Z,57396.72
2023-05-22T15:35:00.919Z,57428.03
2023-05-22T15:37:30.267Z,57377.94
2023-05-22T15:39:58.509Z,57421.78
2023-05-22T15:42:25.213Z,57423.88
2023-05-22T15:44:52.468Z,57438.47
2023-05-22T15:47:19.293Z,57405.06
2023-05-22T15:49:45.978Z,57417.59
2023-05-22T15:52:12.858Z,57436.38
2023-05-22T15:54:39.915Z,57428.03
2023-05-22T15:57:06.901Z,57417.59
2023-05-22T15:59:33.604Z,57415.50
2023-05-22T16:02:00.315Z,57448.91
2023-05-22T16:04:27.181Z,57423.88
2023-05-22T16:06:54.346Z,57390.47
2023-05-22T16:09:21.067Z,57405.06
2023-05-22T16:11:47.840Z,57403.00
2023-05-22T16:14:14.598Z,57438.47
2023-05-22T16:16:41.319Z,57423.88
2023-05-22T16:19:08.202Z,57411.34
2023-05-22T16:21:34.845Z,57403.00
2023-05-22T16:24:01.424Z,57409.25
2023-05-22T16:26:28.074Z,57446.81
2023-05-22T16:28:54.918Z,57423.88
2023-05-22T16:31:21.648Z,57405.06
2023-05-22T16:33:48.474Z,57448.91
2023-05-22T16:36:15.162Z,57409.25
2023-05-22T16:38:42.256Z,57430.13
2023-05-22T16:41:09.031Z,57440.56
2023-05-22T16:43:38.023Z,57444.72
2023-05-22T16:46:04.772Z,57409.25
2023-05-22T16:48:31.524Z,57388.38
2023-05-22T16:50:58.121Z,57438.47
2023-05-22T16:53:24.926Z,57436.38
2023-05-22T16:55:52.104Z,57409.25
2023-05-22T16:58:19.259Z,57453.09
2023-05-22T17:00:46.171Z,57442.66
2023-05-22T17:03:14.162Z,57430.13
2023-05-22T17:05:41.467Z,57430.13
2023-05-22T17:08:08.641Z,57459.34
2023-05-22T17:10:35.815Z,57407.16
2023-05-22T17:13:02.452Z,57459.34
2023-05-22T17:15:29.421Z,57411.34
2023-05-22T17:17:56.298Z,57446.81
2023-05-22T17:20:23.123Z,57423.88
2023-05-22T17:22:50.086Z,57446.81
2023-05-22T17:25:17.192Z,57446.81
2023-05-22T17:27:44.135Z,57419.69
2023-05-22T17:30:11.520Z,57361.25
2023-05-22T17:32:38.906Z,57405.06
2023-05-22T17:35:07.114Z,57423.88
2023-05-22T17:37:34.248Z,57446.81
2023-05-22T17:40:01.139Z,57415.50
2023-05-22T17:42:27.838Z,57421.78
2023-05-22T17:44:55.440Z,57432.22
2023-05-22T17:47:22.365Z,57442.66
2023-05-22T17:49:48.995Z,57421.78
2023-05-22T17:52:15.841Z,57394.63
2023-05-22T17:54:42.690Z,57446.81
2023-05-22T17:57:09.569Z,57407.16
2023-05-22T17:59:39.236Z,57400.91
2023-05-22T18:02:08.426Z,57463.53
2023-05-22T18:04:36.398Z,57411.34
2023-05-22T18:07:04.144Z,57438.47
2023-05-22T18:09:30.892Z,57425.94
2023-05-22T18:11:59.198Z,57438.47
2023-05-22T18:17:10.348Z,57446.81
2023-05-22T18:19:37.039Z,57453.09
2023-05-22T18:22:03.891Z,57463.53
2023-05-22T18:24:30.729Z,57455.16
2023-05-22T18:26:57.344Z,57467.69
2023-05-22T18:29:24.244Z,57415.50
2023-05-22T18:31:51.047Z,57423.88
2023-05-22T18:34:17.759Z,57400.91
2023-05-22T18:36:45.182Z,57440.56
2023-05-22T18:39:12.533Z,57369.59
2023-05-22T18:41:39.620Z,57446.81
2023-05-22T18:44:07.675Z,57457.25
2023-05-22T18:46:34.368Z,57453.09
2023-05-22T18:49:01.241Z,57471.88
2023-05-22T18:51:29.105Z,57405.06
2023-05-22T18:53:56.184Z,57405.06
2023-05-22T18:56:22.975Z,57430.13
2023-05-22T18:58:49.789Z,57432.22
2023-05-22T19:01:17.350Z,57400.91
2023-05-22T19:03:44.084Z,57438.47
2023-05-22T19:06:10.798Z,57465.59
2023-05-22T19:08:37.370Z,57430.13
2023-05-22T19:11:04.085Z,57425.94
2023-05-22T19:13:30.837Z,57438.47
2023-05-22T19:15:58.053Z,57442.66
2023-05-22T19:18:25.101Z,57413.44
2023-05-22T19:20:51.765Z,57451.00
2023-05-22T19:23:18.747Z,57436.38
2023-05-22T19:25:45.610Z,57425.94
2023-05-22T19:28:12.442Z,57428.03
2023-05-22T19:30:39.576Z,57482.31
2023-05-22T19:33:09.026Z,57484.41
2023-05-22T19:35:36.060Z,57400.91
2023-05-22T19:38:02.969Z,57428.03
2023-05-22T19:40:29.705Z,57446.81
2023-05-22T19:42:56.630Z,57463.53
2023-05-22T19:45:26.477Z,57421.78
2023-05-22T19:47:53.214Z,57448.91
2023-05-22T19:50:19.860Z,57442.66
2023-05-22T19:52:46.659Z,57425.94
2023-05-22T19:55:13.351Z,57446.81
2023-05-22T19:57:40.540Z,57425.94
2023-05-22T20:00:11.042Z,57448.91
2023-05-22T20:02:38.540Z,57430.13
2023-05-22T20:05:09.619Z,57444.72
2023-05-22T20:07:36.601Z,57425.94
2023-05-22T20:10:06.665Z,57413.44
2023-05-22T20:12:33.807Z,57413.44
2023-05-22T20:15:00.583Z,57409.25
2023-05-22T20:17:27.378Z,57415.50
2023-05-22T20:19:54.171Z,57473.97
2023-05-22T20:22:20.894Z,57459.34
2023-05-22T20:24:47.636Z,57448.91
2023-05-22T20:27:14.364Z,57494.81
2023-05-22T20:29:41.386Z,57451.00
2023-05-22T20:32:09.194Z,57430.13
2023-05-22T20:34:38.806Z,57400.91
2023-05-22T20:37:06.637Z,57436.38
2023-05-22T20:39:33.694Z,57428.03
2023-05-22T20:42:02.922Z,57413.44
2023-05-22T20:44:31.718Z,57467.69
2023-05-22T20:46:58.783Z,57455.16
2023-05-22T20:49:25.369Z,57417.59
2023-05-22T20:51:54.406Z,57459.34
2023-05-22T20:54:21.508Z,57446.81
2023-05-22T20:56:48.252Z,57473.97
2023-05-22T20:59:15.055Z,57438.47
2023-05-22T21:01:41.963Z,57442.66
2023-05-22T21:04:08.738Z,57436.38
2023-05-22T21:06:36.736Z,57415.50
2023-05-22T21:09:03.886Z,57430.13
2023-05-22T21:11:30.668Z,57471.88
2023-05-22T21:13:57.723Z,57432.22
2023-05-22T21:16:24.606Z,57455.16
2023-05-22T21:18:51.365Z,57411.34
2023-05-22T21:21:20.894Z,57442.66
2023-05-22T21:23:49.154Z,57465.59
2023-05-22T21:26:16.719Z,57432.22
2023-05-22T21:28:44.265Z,57442.66
2023-05-22T21:31:11.363Z,57421.78
2023-05-22T21:33:38.006Z,57453.09
2023-05-22T21:36:04.881Z,57469.78
2023-05-22T21:38:31.577Z,57482.31
2023-05-22T21:40:58.235Z,57451.00
2023-05-22T21:43:25.132Z,57444.72
2023-05-22T21:45:52.667Z,57444.72
2023-05-22T21:48:19.319Z,57451.00
2023-05-22T21:50:46.004Z,57471.88
2023-05-22T21:53:12.777Z,57482.31
2023-05-22T21:55:39.577Z,57457.25
2023-05-22T21:58:06.305Z,57451.00
2023-05-22T22:00:32.983Z,57486.47
2023-05-22T22:03:00.249Z,57436.38
2023-05-22T22:05:28.086Z,57411.34
2023-05-22T22:07:54.713Z,57405.06
2023-05-22T22:10:21.427Z,57444.72
2023-05-22T22:12:49.077Z,57484.41
2023-05-22T22:15:15.883Z,57430.13
2023-05-22T22:17:42.692Z,57453.09
2023-05-22T22:20:10.206Z,57451.00
2023-05-22T22:22:36.986Z,57461.44
2023-05-22T22:25:03.864Z,57463.53
2023-05-22T22:27:30.543Z,57423.88
2023-05-22T22:29:57.361Z,57473.97
2023-05-22T22:32:24.519Z,57442.66
2023-05-22T22:34:53.980Z,57442.66
2023-05-22T22:37:21.672Z,57501.09
2023-05-22T22:39:48.407Z,57419.69
2023-05-22T22:42:15.208Z,57453.09
2023-05-22T22:44:42.440Z,57459.34
2023-05-22T22:47:09.828Z,57490.66
2023-05-22T22:49:37.734Z,57436.38
2023-05-22T22:52:04.760Z,57465.59
2023-05-22T22:54:31.592Z,57513.63
2023-05-22T22:56:58.426Z,57417.59
2023-05-22T22:59:25.104Z,57457.25
2023-05-22T23:01:51.932Z,57480.22
2023-05-22T23:04:19.330Z,57455.16
2023-05-22T23:06:46.480Z,57438.47
2023-05-22T23:09:13.528Z,57442.66
2023-05-22T23:11:40.318Z,57463.53
2023-05-22T23:14:10.613Z,57476.03
2023-05-22T23:16:41.013Z,57496.91
2023-05-22T23:19:09.593Z,57463.53
2023-05-22T23:21:36.680Z,57455.16
2023-05-22T23:24:04.939Z,57465.59
2023-05-22T23:26:33.616Z,57442.66
2023-05-22T23:29:01.149Z,57469.78
2023-05-22T23:31:30.754Z,57438.47
2023-05-22T23:33:58.245Z,57436.38
2023-05-22T23:36:25.915Z,57463.53
2023-05-22T23:38:52.636Z,57490.66
2023-05-22T23:41:19.454Z,57432.22
2023-05-22T23:43:47.541Z,57453.09
2023-05-22T23:46:14.815Z,57446.81
2023-05-22T23:48:42.279Z,57430.13
2023-05-22T23:51:09.568Z,57478.13
2023-05-22T23:53:36.685Z,57480.22
2023-05-22T23:56:04.442Z,57451.00
2023-05-22T23:58:32.271Z,57478.13
